3TX2 weather

Flying S Farm Airport
Justin, Texas, United States

Public forecast

Using degrees Fahrenheit for public forecast. Weather courtesy of forecast.io.

METAR (pilot weather report)

Closest report is Fort Worth Alliance Airport, 5.8 nm (10.7 km) SSE. Retrieved 2019/09/15 03:53 UTC (37 minutes ago):

KAFW 150353Z 11004KT 10SM CLR 29/17 A3009 RMK AO2 SLP171 T02940172

TAF (pilot weather forecast)

Forecast is more than 12 hours old.

Closest forecast is Fort Worth Alliance Airport, 5.8 nm (10.7 km) SSE. Retrieved 2019/09/14 00:27 UTC (1 day ago):

TAF KAFW 142324Z 1500/1524 11007KT P6SM FEW080